sensor_id;sensor_type;location;lat;lon;timestamp;noise_LAeq;noise_LA_min;noise_LA_max;noise_LA01;noise_LA95
66589;Laerm;53447;49.272;11.070;2024-03-07T00:01:46;41.68;39.21;43.40;;
66589;Laerm;53447;49.272;11.070;2024-03-07T00:04:12;41.43;37.71;42.85;;
66589;Laerm;53447;49.272;11.070;2024-03-07T00:06:37;41.25;37.02;44.30;;
66589;Laerm;53447;49.272;11.070;2024-03-07T00:09:03;41.55;38.20;43.30;;
66589;Laerm;53447;49.272;11.070;2024-03-07T00:11:28;42.26;40.18;43.61;;
66589;Laerm;53447;49.272;11.070;2024-03-07T00:13:54;42.35;38.73;46.68;;
66589;Laerm;53447;49.272;11.070;2024-03-07T00:16:19;43.41;41.15;44.70;;
66589;Laerm;53447;49.272;11.070;2024-03-07T00:18:45;43.09;40.72;46.84;;
66589;Laerm;53447;49.272;11.070;2024-03-07T00:21:10;42.87;39.03;44.13;;
66589;Laerm;53447;49.272;11.070;2024-03-07T00:23:36;42.42;40.39;43.80;;
66589;Laerm;53447;49.272;11.070;2024-03-07T00:26:01;42.59;37.71;43.83;;
66589;Laerm;53447;49.272;11.070;2024-03-07T00:28:27;42.37;39.12;45.26;;
66589;Laerm;53447;49.272;11.070;2024-03-07T00:30:57;42.81;39.88;44.88;;
66589;Laerm;53447;49.272;11.070;2024-03-07T00:33:22;42.86;41.09;46.00;;
66589;Laerm;53447;49.272;11.070;2024-03-07T00:35:48;42.43;39.88;44.13;;
66589;Laerm;53447;49.272;11.070;2024-03-07T00:38:13;42.46;40.79;45.94;;
66589;Laerm;53447;49.272;11.070;2024-03-07T00:40:38;42.42;39.64;46.26;;
66589;Laerm;53447;49.272;11.070;2024-03-07T00:43:03;42.27;40.18;44.19;;
66589;Laerm;53447;49.272;11.070;2024-03-07T00:45:30;42.29;40.18;45.00;;
66589;Laerm;53447;49.272;11.070;2024-03-07T00:47:57;42.28;40.25;43.61;;
66589;Laerm;53447;49.272;11.070;2024-03-07T00:50:23;43.48;41.15;45.19;;
66589;Laerm;53447;49.272;11.070;2024-03-07T00:52:49;43.62;40.25;45.62;;
66589;Laerm;53447;49.272;11.070;2024-03-07T00:55:15;42.40;39.56;43.95;;
66589;Laerm;53447;49.272;11.070;2024-03-07T00:57:40;42.91;40.79;45.43;;
66589;Laerm;53447;49.272;11.070;2024-03-07T01:00:06;41.80;36.71;44.22;;
66589;Laerm;53447;49.272;11.070;2024-03-07T01:02:36;41.08;37.58;42.61;;
66589;Laerm;53447;49.272;11.070;2024-03-07T01:05:01;41.00;37.17;43.01;;
66589;Laerm;53447;49.272;11.070;2024-03-07T01:07:32;42.20;40.18;43.47;;
66589;Laerm;53447;49.272;11.070;2024-03-07T01:09:58;42.19;39.96;43.51;;
66589;Laerm;53447;49.272;11.070;2024-03-07T01:12:25;40.87;36.02;43.37;;
66589;Laerm;53447;49.272;11.070;2024-03-07T01:14:55;41.06;38.31;42.77;;
66589;Laerm;53447;49.272;11.070;2024-03-07T01:17:22;41.90;38.08;44.49;;
66589;Laerm;53447;49.272;11.070;2024-03-07T01:19:47;41.65;36.87;44.22;;
66589;Laerm;53447;49.272;11.070;2024-03-07T01:22:12;41.24;38.68;42.89;;
66589;Laerm;53447;49.272;11.070;2024-03-07T01:24:37;41.00;35.41;42.69;;
66589;Laerm;53447;49.272;11.070;2024-03-07T01:27:04;40.94;35.82;42.49;;
66589;Laerm;53447;49.272;11.070;2024-03-07T01:29:29;41.59;37.96;43.40;;
66589;Laerm;53447;49.272;11.070;2024-03-07T01:31:54;42.21;40.11;43.33;;
66589;Laerm;53447;49.272;11.070;2024-03-07T01:34:20;42.12;38.53;43.33;;
66589;Laerm;53447;49.272;11.070;2024-03-07T01:36:45;41.08;39.03;42.36;;
66589;Laerm;53447;49.272;11.070;2024-03-07T01:39:10;41.28;34.44;46.20;;
66589;Laerm;53447;49.272;11.070;2024-03-07T01:41:35;41.40;36.87;43.77;;
66589;Laerm;53447;49.272;11.070;2024-03-07T01:44:01;41.07;36.20;42.89;;
66589;Laerm;53447;49.272;11.070;2024-03-07T01:46:26;41.09;36.38;42.31;;
66589;Laerm;53447;49.272;11.070;2024-03-07T01:48:51;41.27;36.20;43.80;;
66589;Laerm;53447;49.272;11.070;2024-03-07T01:51:16;41.27;36.38;42.77;;
66589;Laerm;53447;49.272;11.070;2024-03-07T01:53:42;41.59;34.95;43.83;;
66589;Laerm;53447;49.272;11.070;2024-03-07T01:56:07;42.19;38.73;44.75;;
66589;Laerm;53447;49.272;11.070;2024-03-07T01:58:33;42.23;38.18;43.98;;
66589;Laerm;53447;49.272;11.070;2024-03-07T02:01:00;41.10;35.41;43.12;;
66589;Laerm;53447;49.272;11.070;2024-03-07T02:03:25;41.28;39.03;42.69;;
66589;Laerm;53447;49.272;11.070;2024-03-07T02:05:50;41.64;38.53;43.22;;
66589;Laerm;53447;49.272;11.070;2024-03-07T02:08:16;51.34;35.82;70.19;;
66589;Laerm;53447;49.272;11.070;2024-03-07T02:10:41;42.17;36.87;55.16;;
66589;Laerm;53447;49.272;11.070;2024-03-07T02:13:07;41.08;36.71;42.49;;
66589;Laerm;53447;49.272;11.070;2024-03-07T02:15:32;41.23;37.71;42.65;;
66589;Laerm;53447;49.272;11.070;2024-03-07T02:17:58;41.23;36.02;43.40;;
66589;Laerm;53447;49.272;11.070;2024-03-07T02:20:24;42.19;38.93;43.30;;
66589;Laerm;53447;49.272;11.070;2024-03-07T02:22:49;42.19;39.56;43.33;;
66589;Laerm;53447;49.272;11.070;2024-03-07T02:25:15;41.27;37.71;42.73;;
66589;Laerm;53447;49.272;11.070;2024-03-07T02:27:40;40.85;34.44;47.82;;
66589;Laerm;53447;49.272;11.070;2024-03-07T02:30:06;41.66;36.87;43.40;;
66589;Laerm;53447;49.272;11.070;2024-03-07T02:32:37;42.84;40.32;49.18;;
66589;Laerm;53447;49.272;11.070;2024-03-07T02:35:02;43.37;40.46;46.33;;
66589;Laerm;53447;49.272;11.070;2024-03-07T02:37:28;42.96;40.79;48.22;;
66589;Laerm;53447;49.272;11.070;2024-03-07T02:39:53;42.20;38.31;43.92;;
66589;Laerm;53447;49.272;11.070;2024-03-07T02:42:19;42.28;40.59;43.51;;
66589;Laerm;53447;49.272;11.070;2024-03-07T02:44:44;42.61;40.66;43.86;;
66589;Laerm;53447;49.272;11.070;2024-03-07T02:47:09;43.00;41.21;53.40;;
66589;Laerm;53447;49.272;11.070;2024-03-07T02:49:35;43.12;40.39;49.87;;
66589;Laerm;53447;49.272;11.070;2024-03-07T02:52:00;42.62;38.42;43.98;;
66589;Laerm;53447;49.272;11.070;2024-03-07T02:54:25;42.27;40.46;43.70;;
66589;Laerm;53447;49.272;11.070;2024-03-07T02:56:50;42.20;40.32;43.37;;
66589;Laerm;53447;49.272;11.070;2024-03-07T02:59:15;42.09;40.18;43.47;;
66589;Laerm;53447;49.272;11.070;2024-03-07T03:01:41;42.04;39.21;43.30;;
66589;Laerm;53447;49.272;11.070;2024-03-07T03:04:06;40.83;37.02;42.18;;
66589;Laerm;53447;49.272;11.070;2024-03-07T03:06:32;40.93;37.71;42.40;;
66589;Laerm;53447;49.272;11.070;2024-03-07T03:08:57;41.14;36.71;43.06;;
66589;Laerm;53447;49.272;11.070;2024-03-07T03:11:23;42.35;36.68;44.52;;
66589;Laerm;53447;49.272;11.070;2024-03-07T03:13:49;42.24;39.80;43.39;;
66589;Laerm;53447;49.272;11.070;2024-03-07T03:16:14;42.07;39.12;43.57;;
66589;Laerm;53447;49.272;11.070;2024-03-07T03:18:40;40.97;37.17;42.57;;
66589;Laerm;53447;49.272;11.070;2024-03-07T03:21:06;40.97;37.17;42.31;;
66589;Laerm;53447;49.272;11.070;2024-03-07T03:23:31;41.10;38.53;42.49;;
66589;Laerm;53447;49.272;11.070;2024-03-07T03:25:56;40.85;36.02;42.40;;
66589;Laerm;53447;49.272;11.070;2024-03-07T03:28:22;41.07;38.53;42.61;;
66589;Laerm;53447;49.272;11.070;2024-03-07T03:30:47;41.87;38.20;43.44;;
66589;Laerm;53447;49.272;11.070;2024-03-07T03:33:13;41.18;39.03;42.69;;
66589;Laerm;53447;49.272;11.070;2024-03-07T03:35:38;41.50;37.45;43.26;;
66589;Laerm;53447;49.272;11.070;2024-03-07T03:38:04;42.26;40.53;43.80;;
66589;Laerm;53447;49.272;11.070;2024-03-07T03:40:29;42.25;40.18;43.40;;
66589;Laerm;53447;49.272;11.070;2024-03-07T03:42:55;41.19;37.71;43.26;;
66589;Laerm;53447;49.272;11.070;2024-03-07T03:45:20;41.74;39.12;43.47;;
66589;Laerm;53447;49.272;11.070;2024-03-07T03:47:45;42.67;40.53;46.38;;
66589;Laerm;53447;49.272;11.070;2024-03-07T03:50:11;42.23;40.46;43.54;;
66589;Laerm;53447;49.272;11.070;2024-03-07T03:52:37;42.98;41.26;44.30;;
66589;Laerm;53447;49.272;11.070;2024-03-07T03:55:03;42.77;41.15;44.19;;
66589;Laerm;53447;49.272;11.070;2024-03-07T03:57:32;42.69;41.03;44.01;;
66589;Laerm;53447;49.272;11.070;2024-03-07T03:59:58;42.64;39.80;44.19;;
66589;Laerm;53447;49.272;11.070;2024-03-07T04:02:23;41.59;39.39;42.97;;
66589;Laerm;53447;49.272;11.070;2024-03-07T04:04:49;41.94;38.73;44.33;;
66589;Laerm;53447;49.272;11.070;2024-03-07T04:07:15;41.83;39.56;43.44;;
66589;Laerm;53447;49.272;11.070;2024-03-07T04:09:43;42.61;40.18;45.41;;
66589;Laerm;53447;49.272;11.070;2024-03-07T04:12:09;43.79;40.91;46.63;;
66589;Laerm;53447;49.272;11.070;2024-03-07T04:14:36;42.85;41.43;44.01;;
66589;Laerm;53447;49.272;11.070;2024-03-07T04:17:01;42.73;41.26;45.05;;
66589;Laerm;53447;49.272;11.070;2024-03-07T04:19:27;42.81;41.09;44.16;;
66589;Laerm;53447;49.272;11.070;2024-03-07T04:21:52;43.31;40.66;63.05;;
66589;Laerm;53447;49.272;11.070;2024-03-07T04:24:18;44.76;40.85;58.79;;
66589;Laerm;53447;49.272;11.070;2024-03-07T04:26:44;48.21;40.25;65.52;;
66589;Laerm;53447;49.272;11.070;2024-03-07T04:29:09;51.63;41.15;68.00;;
66589;Laerm;53447;49.272;11.070;2024-03-07T04:31:35;52.98;40.91;69.46;;
66589;Laerm;53447;49.272;11.070;2024-03-07T04:34:01;53.65;40.91;69.25;;
66589;Laerm;53447;49.272;11.070;2024-03-07T04:36:26;53.22;40.97;69.45;;
66589;Laerm;53447;49.272;11.070;2024-03-07T04:38:52;53.05;40.72;68.05;;
66589;Laerm;53447;49.272;11.070;2024-03-07T04:41:17;47.97;40.72;65.21;;
66589;Laerm;53447;49.272;11.070;2024-03-07T04:43:42;43.81;40.79;54.24;;
66589;Laerm;53447;49.272;11.070;2024-03-07T04:46:08;43.07;40.79;52.69;;
66589;Laerm;53447;49.272;11.070;2024-03-07T04:48:33;44.11;40.39;54.34;;
66589;Laerm;53447;49.272;11.070;2024-03-07T04:50:58;49.23;40.53;67.08;;
66589;Laerm;53447;49.272;11.070;2024-03-07T04:53:23;50.98;40.66;67.41;;
66589;Laerm;53447;49.272;11.070;2024-03-07T04:55:49;54.29;40.53;71.31;;
66589;Laerm;53447;49.272;11.070;2024-03-07T04:58:14;53.52;40.86;69.20;;
66589;Laerm;53447;49.272;11.070;2024-03-07T05:00:39;55.38;40.32;72.63;;
66589;Laerm;53447;49.272;11.070;2024-03-07T05:03:04;57.83;39.80;74.91;;
66589;Laerm;53447;49.272;11.070;2024-03-07T05:05:30;54.21;39.48;69.66;;
66589;Laerm;53447;49.272;11.070;2024-03-07T05:07:55;53.42;40.46;69.08;;
66589;Laerm;53447;49.272;11.070;2024-03-07T05:10:23;52.13;39.64;68.26;;
66589;Laerm;53447;49.272;11.070;2024-03-07T05:12:49;52.14;40.03;69.23;;
66589;Laerm;53447;49.272;11.070;2024-03-07T05:15:14;52.55;40.85;71.96;;
66589;Laerm;53447;49.272;11.070;2024-03-07T05:17:40;42.36;40.59;47.24;;
66589;Laerm;53447;49.272;11.070;2024-03-07T05:20:08;44.14;39.72;62.78;;
66589;Laerm;53447;49.272;11.070;2024-03-07T05:22:38;49.10;39.72;65.00;;
66589;Laerm;53447;49.272;11.070;2024-03-07T05:25:06;49.60;40.11;62.91;;
66589;Laerm;53447;49.272;11.070;2024-03-07T05:27:31;50.76;40.32;66.25;;
66589;Laerm;53447;49.272;11.070;2024-03-07T05:29:56;54.68;40.59;66.93;;
66589;Laerm;53447;49.272;11.070;2024-03-07T05:34:47;50.09;41.03;66.24;;
66589;Laerm;53447;49.272;11.070;2024-03-07T05:37:13;52.50;41.84;65.00;;
66589;Laerm;53447;49.272;11.070;2024-03-07T05:39:38;54.37;40.53;68.56;;
66589;Laerm;53447;49.272;11.070;2024-03-07T05:42:04;57.41;41.15;72.20;;
66589;Laerm;53447;49.272;11.070;2024-03-07T05:44:29;57.05;41.38;70.12;;
66589;Laerm;53447;49.272;11.070;2024-03-07T05:46:54;54.17;41.09;67.91;;
66589;Laerm;53447;49.272;11.070;2024-03-07T05:49:19;51.68;41.09;70.50;;
66589;Laerm;53447;49.272;11.070;2024-03-07T05:51:47;50.62;41.64;66.91;;
66589;Laerm;53447;49.272;11.070;2024-03-07T05:54:13;50.73;41.55;68.06;;
66589;Laerm;53447;49.272;11.070;2024-03-07T05:56:38;50.82;42.04;66.40;;
66589;Laerm;53447;49.272;11.070;2024-03-07T05:59:04;54.03;42.18;68.76;;
66589;Laerm;53447;49.272;11.070;2024-03-07T06:01:33;54.40;41.59;68.91;;
66589;Laerm;53447;49.272;11.070;2024-03-07T06:03:59;55.61;42.40;71.79;;
66589;Laerm;53447;49.272;11.070;2024-03-07T06:06:25;56.25;41.69;72.06;;
66589;Laerm;53447;49.272;11.070;2024-03-07T06:08:50;54.44;41.21;68.49;;
66589;Laerm;53447;49.272;11.070;2024-03-07T06:11:15;53.53;40.97;70.35;;
66589;Laerm;53447;49.272;11.070;2024-03-07T06:13:45;54.50;40.91;71.01;;
66589;Laerm;53447;49.272;11.070;2024-03-07T06:16:11;55.98;41.54;73.11;;
66589;Laerm;53447;49.272;11.070;2024-03-07T06:18:36;57.44;42.93;74.12;;
66589;Laerm;53447;49.272;11.070;2024-03-07T06:21:01;52.86;41.38;68.04;;
66589;Laerm;53447;49.272;11.070;2024-03-07T06:23:29;54.71;41.48;70.96;;
66589;Laerm;53447;49.272;11.070;2024-03-07T06:25:55;54.41;40.97;72.79;;
66589;Laerm;53447;49.272;11.070;2024-03-07T06:28:21;56.10;41.59;73.26;;
66589;Laerm;53447;49.272;11.070;2024-03-07T06:30:46;51.67;41.79;66.79;;
66589;Laerm;53447;49.272;11.070;2024-03-07T06:33:12;45.36;41.59;61.52;;
66589;Laerm;53447;49.272;11.070;2024-03-07T06:35:38;54.95;41.94;69.62;;
66589;Laerm;53447;49.272;11.070;2024-03-07T06:38:07;52.52;41.54;67.42;;
66589;Laerm;53447;49.272;11.070;2024-03-07T06:40:33;51.74;41.79;67.93;;
66589;Laerm;53447;49.272;11.070;2024-03-07T06:42:59;51.18;39.48;66.24;;
66589;Laerm;53447;49.272;11.070;2024-03-07T06:45:24;57.37;40.39;74.29;;
66589;Laerm;53447;49.272;11.070;2024-03-07T06:47:50;54.14;38.42;71.27;;
66589;Laerm;53447;49.272;11.070;2024-03-07T06:50:17;47.62;39.39;68.43;;
66589;Laerm;53447;49.272;11.070;2024-03-07T06:52:45;51.12;40.59;67.55;;
66589;Laerm;53447;49.272;11.070;2024-03-07T06:55:10;55.72;38.83;71.28;;
66589;Laerm;53447;49.272;11.070;2024-03-07T06:57:36;55.22;40.11;72.18;;
66589;Laerm;53447;49.272;11.070;2024-03-07T07:00:01;49.17;39.83;67.57;;
66589;Laerm;53447;49.272;11.070;2024-03-07T07:02:35;53.42;38.42;69.55;;
66589;Laerm;53447;49.272;11.070;2024-03-07T07:05:01;57.71;40.32;82.90;;
66589;Laerm;53447;49.272;11.070;2024-03-07T07:07:26;47.69;38.08;72.35;;
66589;Laerm;53447;49.272;11.070;2024-03-07T07:09:51;49.06;40.03;64.70;;
66589;Laerm;53447;49.272;11.070;2024-03-07T07:12:18;45.47;38.49;59.33;;
66589;Laerm;53447;49.272;11.070;2024-03-07T07:14:44;52.76;40.39;68.38;;
66589;Laerm;53447;49.272;11.070;2024-03-07T07:17:09;49.04;40.79;65.12;;
66589;Laerm;53447;49.272;11.070;2024-03-07T07:19:38;48.70;39.88;68.54;;
66589;Laerm;53447;49.272;11.070;2024-03-07T07:22:05;45.15;40.18;64.93;;
66589;Laerm;53447;49.272;11.070;2024-03-07T07:24:31;52.85;39.48;71.57;;
66589;Laerm;53447;49.272;11.070;2024-03-07T07:26:59;54.92;41.03;73.84;;
66589;Laerm;53447;49.272;11.070;2024-03-07T07:29:25;53.14;40.53;68.39;;
66589;Laerm;53447;49.272;11.070;2024-03-07T07:31:51;55.97;39.21;70.78;;
66589;Laerm;53447;49.272;11.070;2024-03-07T07:34:17;53.66;39.56;68.59;;
66589;Laerm;53447;49.272;11.070;2024-03-07T07:36:42;53.54;39.80;69.03;;
66589;Laerm;53447;49.272;11.070;2024-03-07T07:39:07;51.40;40.85;66.35;;
66589;Laerm;53447;49.272;11.070;2024-03-07T07:41:41;56.42;39.88;70.26;;
66589;Laerm;53447;49.272;11.070;2024-03-07T07:44:06;52.81;39.64;67.51;;
66589;Laerm;53447;49.272;11.070;2024-03-07T07:46:33;56.46;41.79;71.43;;
66589;Laerm;53447;49.272;11.070;2024-03-07T07:48:59;51.86;41.54;67.37;;
66589;Laerm;53447;49.272;11.070;2024-03-07T07:51:24;55.18;41.74;74.22;;
66589;Laerm;53447;49.272;11.070;2024-03-07T07:53:50;55.04;41.59;79.98;;
66589;Laerm;53447;49.272;11.070;2024-03-07T07:56:15;54.68;41.38;69.20;;
66589;Laerm;53447;49.272;11.070;2024-03-07T07:58:41;54.30;41.64;67.56;;
66589;Laerm;53447;49.272;11.070;2024-03-07T08:01:06;56.77;41.69;71.90;;
66589;Laerm;53447;49.272;11.070;2024-03-07T08:03:34;50.97;40.39;65.17;;
66589;Laerm;53447;49.272;11.070;2024-03-07T08:06:00;55.68;40.46;72.63;;
66589;Laerm;53447;49.272;11.070;2024-03-07T08:08:26;54.72;38.83;72.65;;
66589;Laerm;53447;49.272;11.070;2024-03-07T08:10:51;55.44;39.12;70.95;;
66589;Laerm;53447;49.272;11.070;2024-03-07T08:13:16;57.16;38.20;73.79;;
66589;Laerm;53447;49.272;11.070;2024-03-07T08:15:41;52.45;41.15;70.18;;
66589;Laerm;53447;49.272;11.070;2024-03-07T08:18:07;53.04;40.97;70.03;;
66589;Laerm;53447;49.272;11.070;2024-03-07T08:20:35;53.07;41.09;68.77;;
66589;Laerm;53447;49.272;11.070;2024-03-07T08:23:00;51.13;40.85;67.36;;
66589;Laerm;53447;49.272;11.070;2024-03-07T08:25:26;56.22;41.21;73.05;;
66589;Laerm;53447;49.272;11.070;2024-03-07T08:27:56;52.62;40.32;66.85;;
66589;Laerm;53447;49.272;11.070;2024-03-07T08:30:22;54.80;40.39;69.37;;
66589;Laerm;53447;49.272;11.070;2024-03-07T08:32:51;47.39;40.85;61.39;;
66589;Laerm;53447;49.272;11.070;2024-03-07T08:35:17;49.59;39.80;73.15;;
66589;Laerm;53447;49.272;11.070;2024-03-07T08:37:43;55.18;41.54;69.19;;
66589;Laerm;53447;49.272;11.070;2024-03-07T08:40:09;49.44;38.83;67.05;;
66589;Laerm;53447;49.272;11.070;2024-03-07T08:42:36;44.49;39.48;60.90;;
66589;Laerm;53447;49.272;11.070;2024-03-07T08:45:02;45.28;40.46;57.75;;
66589;Laerm;53447;49.272;11.070;2024-03-07T08:47:34;52.73;40.53;70.93;;
66589;Laerm;53447;49.272;11.070;2024-03-07T08:49:59;53.98;41.03;69.31;;
66589;Laerm;53447;49.272;11.070;2024-03-07T08:52:25;58.36;40.11;68.50;;
66589;Laerm;53447;49.272;11.070;2024-03-07T08:54:50;51.88;39.83;68.03;;
66589;Laerm;53447;49.272;11.070;2024-03-07T08:57:15;52.98;40.18;67.93;;
66589;Laerm;53447;49.272;11.070;2024-03-07T08:59:43;53.78;38.42;70.32;;
66589;Laerm;53447;49.272;11.070;2024-03-07T09:02:11;53.25;38.42;68.61;;
66589;Laerm;53447;49.272;11.070;2024-03-07T09:04:39;53.47;40.79;67.98;;
66589;Laerm;53447;49.272;11.070;2024-03-07T09:07:06;51.08;38.73;68.92;;
66589;Laerm;53447;49.272;11.070;2024-03-07T09:09:31;53.59;38.49;83.96;;
66589;Laerm;53447;49.272;11.070;2024-03-07T09:11:57;53.35;39.39;70.16;;
66589;Laerm;53447;49.272;11.070;2024-03-07T09:14:22;47.01;40.18;66.98;;
66589;Laerm;53447;49.272;11.070;2024-03-07T09:16:47;44.98;37.45;63.40;;
66589;Laerm;53447;49.272;11.070;2024-03-07T09:19:13;44.78;38.42;59.78;;
66589;Laerm;53447;49.272;11.070;2024-03-07T09:21:39;53.19;38.08;71.16;;
66589;Laerm;53447;49.272;11.070;2024-03-07T09:24:05;52.45;39.03;69.16;;
66589;Laerm;53447;49.272;11.070;2024-03-07T09:26:32;53.57;40.59;67.61;;
66589;Laerm;53447;49.272;11.070;2024-03-07T09:28:57;49.97;39.96;65.18;;
66589;Laerm;53447;49.272;11.070;2024-03-07T09:31:22;48.89;39.80;63.34;;
66589;Laerm;53447;49.272;11.070;2024-03-07T09:33:47;46.95;40.39;62.09;;
66589;Laerm;53447;49.272;11.070;2024-03-07T09:36:13;54.51;40.97;68.35;;
66589;Laerm;53447;49.272;11.070;2024-03-07T09:38:39;52.87;41.21;66.91;;
66589;Laerm;53447;49.272;11.070;2024-03-07T09:41:05;51.13;39.30;65.50;;
66589;Laerm;53447;49.272;11.070;2024-03-07T09:43:31;51.12;39.30;67.18;;
66589;Laerm;53447;49.272;11.070;2024-03-07T09:45:58;52.40;38.20;71.05;;
66589;Laerm;53447;49.272;11.070;2024-03-07T09:48:23;51.83;40.11;67.65;;
66589;Laerm;53447;49.272;11.070;2024-03-07T09:50:50;50.58;38.63;69.61;;
66589;Laerm;53447;49.272;11.070;2024-03-07T09:53:17;52.55;38.93;68.37;;
66589;Laerm;53447;49.272;11.070;2024-03-07T09:55:43;46.63;38.42;69.72;;
66589;Laerm;53447;49.272;11.070;2024-03-07T09:58:09;50.04;38.20;66.91;;
66589;Laerm;53447;49.272;11.070;2024-03-07T10:00:38;50.44;38.49;66.79;;
66589;Laerm;53447;49.272;11.070;2024-03-07T10:03:05;52.92;38.08;68.55;;
66589;Laerm;53447;49.272;11.070;2024-03-07T10:05:31;49.46;39.03;65.63;;
66589;Laerm;53447;49.272;11.070;2024-03-07T10:07:58;51.77;40.46;69.87;;
66589;Laerm;53447;49.272;11.070;2024-03-07T10:10:23;43.18;39.12;50.24;;
66589;Laerm;53447;49.272;11.070;2024-03-07T10:12:49;47.68;38.63;66.20;;
66589;Laerm;53447;49.272;11.070;2024-03-07T10:15:15;42.53;36.87;59.06;;
66589;Laerm;53447;49.272;11.070;2024-03-07T10:17:42;44.10;38.31;65.49;;
66589;Laerm;53447;49.272;11.070;2024-03-07T10:20:08;45.60;40.32;60.02;;
66589;Laerm;53447;49.272;11.070;2024-03-07T10:22:37;43.90;39.80;58.34;;
66589;Laerm;53447;49.272;11.070;2024-03-07T10:25:03;52.41;38.63;71.61;;
66589;Laerm;53447;49.272;11.070;2024-03-07T10:27:28;51.61;39.03;67.48;;
66589;Laerm;53447;49.272;11.070;2024-03-07T10:29:54;48.94;39.30;67.56;;
66589;Laerm;53447;49.272;11.070;2024-03-07T10:32:20;54.24;40.59;72.65;;
66589;Laerm;53447;49.272;11.070;2024-03-07T10:34:45;52.09;38.73;69.60;;
66589;Laerm;53447;49.272;11.070;2024-03-07T10:37:13;46.33;36.71;64.21;;
66589;Laerm;53447;49.272;11.070;2024-03-07T10:39:42;47.15;38.31;72.95;;
66589;Laerm;53447;49.272;11.070;2024-03-07T10:42:07;55.49;39.83;67.91;;
66589;Laerm;53447;49.272;11.070;2024-03-07T10:44:35;53.01;37.02;70.16;;
66589;Laerm;53447;49.272;11.070;2024-03-07T10:47:06;50.95;37.02;66.51;;
66589;Laerm;53447;49.272;11.070;2024-03-07T10:49:33;54.22;39.03;68.01;;
66589;Laerm;53447;49.272;11.070;2024-03-07T10:52:10;49.78;37.96;66.90;;
66589;Laerm;53447;49.272;11.070;2024-03-07T10:55:00;51.20;37.84;69.98;;
66589;Laerm;53447;49.272;11.070;2024-03-07T11:00:01;55.47;38.31;70.73;;
66589;Laerm;53447;49.272;11.070;2024-03-07T11:02:47;57.73;40.18;77.02;;
66589;Laerm;53447;49.272;11.070;2024-03-07T11:05:14;50.66;39.64;73.94;;
66589;Laerm;53447;49.272;11.070;2024-03-07T11:07:40;51.97;38.83;70.31;;
66589;Laerm;53447;49.272;11.070;2024-03-07T11:10:06;48.12;39.39;64.91;;
66589;Laerm;53447;49.272;11.070;2024-03-07T11:12:36;48.59;39.30;64.69;;
66589;Laerm;53447;49.272;11.070;2024-03-07T11:15:03;53.48;39.12;67.19;;
66589;Laerm;53447;49.272;11.070;2024-03-07T11:17:31;50.23;38.63;67.09;;
66589;Laerm;53447;49.272;11.070;2024-03-07T11:20:19;51.59;38.93;69.08;;
66589;Laerm;53447;49.272;11.070;2024-03-07T11:22:44;45.96;37.45;63.50;;
66589;Laerm;53447;49.272;11.070;2024-03-07T11:25:10;50.39;37.31;72.51;;
66589;Laerm;53447;49.272;11.070;2024-03-07T11:27:39;52.52;38.83;70.77;;
66589;Laerm;53447;49.272;11.070;2024-03-07T11:30:07;43.70;37.84;57.39;;
66589;Laerm;53447;49.272;11.070;2024-03-07T11:32:39;44.19;37.31;57.08;;
66589;Laerm;53447;49.272;11.070;2024-03-07T11:35:11;50.06;38.83;72.09;;
66589;Laerm;53447;49.272;11.070;2024-03-07T11:37:42;43.13;37.31;55.50;;
66589;Laerm;53447;49.272;11.070;2024-03-07T11:42:48;53.31;38.08;72.94;;
66589;Laerm;53447;49.272;11.070;2024-03-07T11:45:14;51.95;38.42;70.65;;
66589;Laerm;53447;49.272;11.070;2024-03-07T11:48:05;44.55;38.83;62.84;;
66589;Laerm;53447;49.272;11.070;2024-03-07T11:50:34;51.97;38.63;72.22;;
66589;Laerm;53447;49.272;11.070;2024-03-07T11:53:03;49.58;38.86;77.33;;
66589;Laerm;53447;49.272;11.070;2024-03-07T11:55:31;44.24;40.03;62.28;;
66589;Laerm;53447;49.272;11.070;2024-03-07T11:58:24;53.08;38.73;73.74;;
66589;Laerm;53447;49.272;11.070;2024-03-07T12:00:51;48.15;38.31;70.62;;
66589;Laerm;53447;49.272;11.070;2024-03-07T12:03:17;46.23;40.39;56.02;;
66589;Laerm;53447;49.272;11.070;2024-03-07T12:05:44;45.75;40.03;57.36;;
66589;Laerm;53447;49.272;11.070;2024-03-07T12:08:12;51.77;40.03;69.22;;
66589;Laerm;53447;49.272;11.070;2024-03-07T12:10:38;52.97;39.03;68.43;;
66589;Laerm;53447;49.272;11.070;2024-03-07T12:13:04;47.56;38.83;57.91;;
66589;Laerm;53447;49.272;11.070;2024-03-07T12:15:30;50.74;39.03;67.94;;
66589;Laerm;53447;49.272;11.070;2024-03-07T12:17:55;43.74;40.50;55.16;;
66589;Laerm;53447;49.272;11.070;2024-03-07T12:20:22;45.40;40.11;56.60;;
66589;Laerm;53447;49.272;11.070;2024-03-07T12:22:56;50.94;39.96;68.71;;
66589;Laerm;53447;49.272;11.070;2024-03-07T12:25:21;45.98;38.73;73.17;;
66589;Laerm;53447;49.272;11.070;2024-03-07T12:28:32;46.96;40.91;61.74;;
66589;Laerm;53447;49.272;11.070;2024-03-07T12:30:55;50.01;40.72;68.83;;
66589;Laerm;53447;49.272;11.070;2024-03-07T12:33:21;50.58;39.96;69.79;;
66589;Laerm;53447;49.272;11.070;2024-03-07T12:35:50;43.12;40.91;54.29;;
66589;Laerm;53447;49.272;11.070;2024-03-07T12:38:17;44.70;40.66;58.66;;
66589;Laerm;53447;49.272;11.070;2024-03-07T12:40:43;47.79;39.21;60.08;;
66589;Laerm;53447;49.272;11.070;2024-03-07T12:43:15;44.63;40.53;61.96;;
66589;Laerm;53447;49.272;11.070;2024-03-07T12:45:48;44.70;39.88;66.54;;
66589;Laerm;53447;49.272;11.070;2024-03-07T12:48:14;45.35;39.12;61.95;;
66589;Laerm;53447;49.272;11.070;2024-03-07T12:50:39;51.60;37.71;67.29;;
66589;Laerm;53447;49.272;11.070;2024-03-07T12:53:05;52.28;38.93;68.23;;
66589;Laerm;53447;49.272;11.070;2024-03-07T12:55:31;50.63;37.02;71.24;;
66589;Laerm;53447;49.272;11.070;2024-03-07T12:57:56;42.40;37.45;53.56;;
66589;Laerm;53447;49.272;11.070;2024-03-07T13:00:22;54.85;37.58;68.99;;
66589;Laerm;53447;49.272;11.070;2024-03-07T13:02:47;46.93;38.08;67.54;;
66589;Laerm;53447;49.272;11.070;2024-03-07T13:05:13;50.29;38.73;69.78;;
66589;Laerm;53447;49.272;11.070;2024-03-07T13:07:46;48.15;38.73;65.62;;
66589;Laerm;53447;49.272;11.070;2024-03-07T13:10:12;53.80;40.03;72.29;;
66589;Laerm;53447;49.272;11.070;2024-03-07T13:12:40;46.58;40.46;59.32;;
66589;Laerm;53447;49.272;11.070;2024-03-07T13:15:07;45.11;40.53;57.99;;
66589;Laerm;53447;49.272;11.070;2024-03-07T13:17:35;44.59;36.02;67.28;;
66589;Laerm;53447;49.272;11.070;2024-03-07T13:20:00;50.39;35.82;64.55;;
66589;Laerm;53447;49.272;11.070;2024-03-07T13:22:26;52.09;38.42;69.96;;
66589;Laerm;53447;49.272;11.070;2024-03-07T13:24:51;45.47;40.25;58.09;;
66589;Laerm;53447;49.272;11.070;2024-03-07T13:27:16;49.56;39.64;64.30;;
66589;Laerm;53447;49.272;11.070;2024-03-07T13:29:50;55.35;37.71;72.75;;
66589;Laerm;53447;49.272;11.070;2024-03-07T13:32:16;50.43;40.25;68.14;;
66589;Laerm;53447;49.272;11.070;2024-03-07T13:34:41;44.23;37.71;61.60;;
66589;Laerm;53447;49.272;11.070;2024-03-07T13:37:07;45.04;40.11;57.16;;